Latest Weather Observations for Gunnedah Airport

IDN60801

Issued at 10:03 pm EDT Thursday 23 November 2017 (issued every 30 minutes, with the page automatically refreshed every 10 minutes)

About weather observations | Map of weather stations | Latest weather observations for NSW | Other Formats
Station Details ID: 055202 Name: GUNNEDAH AIRPORT AWS Lat: -30.95 Lon: 150.25 Height: 262.57 m
Data from the previous 72 hours. | See also: Recent months at Gunnedah Airport
Date/Time
EDT
Temp
°C
App
Temp
°C
Dew
Point
°C
Rel
Hum
%
Delta-T
°C
Wind Press
QNH
hPa
Press
MSL
hPa
Rain since
9am
mm
Dir  Spd
km/h
Gust
km/h
Spd
kts
Gust
kts
23/10:00pm 18.5 17.6 10.8 61 4.2 E 6 9 3 5 1016.0 1014.9 0.2
23/09:30pm 18.3 17.0 11.1 63 4.0 E 9 11 5 6 1016.0 1014.9 0.2
23/09:00pm 18.4 16.8 11.5 64 3.8 ESE 11 13 6 7 1015.5 1014.3 0.2
23/08:30pm 19.3 17.0 11.8 62 4.2 E 15 17 8 9 1015.2 1014.0 0.2
23/08:00pm 21.5 19.3 12.1 55 5.3 ESE 15 20 8 11 1014.9 1013.7 0.2
23/07:30pm 21.8 20.8 12.4 55 5.4 SE 9 11 5 6 1014.4 1013.2 0.2
23/07:00pm 25.0 23.7 10.1 39 8.3 S 7 11 4 6 1014.0 1012.9 0.2
23/06:30pm 25.3 22.1 10.0 38 8.6 SSW 17 20 9 11 1013.6 1012.5 0.2
23/06:00pm 24.4 21.2 9.9 40 8.1 SSW 17 22 9 12 1013.6 1012.5 0.2
23/05:30pm 23.9 19.7 9.9 41 7.8 SSW 22 30 12 16 1013.7 1012.6 0.2
23/05:00pm 24.9 22.4 8.0 34 9.1 W 11 39 6 21 1013.8 1012.7 0.2
23/04:30pm 27.1 25.6 8.5 31 10.2 WNW 6 13 3 7 1013.5 1012.4 0.2
23/04:00pm 27.3 24.0 9.6 33 9.9 NNW 17 24 9 13 1013.5 1012.4 0.2
23/03:30pm 28.4 25.2 10.1 32 10.4 NW 17 28 9 15 1013.4 1012.3 0.2
23/03:00pm 27.5 24.5 12.7 40 8.7 N 20 30 11 16 1014.0 1012.9 0.2
23/02:30pm 28.1 26.2 8.9 30 10.7 WSW 9 15 5 8 1014.6 1013.4 0.2
23/02:00pm 27.5 25.6 8.9 31 10.3 N 9 19 5 10 1015.0 1013.8 0.2
23/01:30pm 28.0 26.3 9.8 32 10.3 NNW 9 13 5 7 1015.4 1014.2 0.2
23/01:00pm 26.0 24.2 9.4 35 9.2 WNW 9 17 5 9 1015.9 1014.8 0.2
23/12:30pm 25.5 23.8 9.7 37 8.8 NW 9 20 5 11 1016.5 1015.4 0.2
23/12:00pm 26.6 25.9 11.9 40 8.5 WNW 7 17 4 9 1016.9 1015.8 0.2
23/11:30am 25.1 23.3 12.0 44 7.6 N 13 24 7 13 1017.3 1016.2 0.2
23/11:00am 24.9 24.2 11.5 43 7.7 WSW 6 19 3 10 1017.6 1016.5 0.0
23/10:30am 23.1 21.3 10.9 46 6.8 SW 11 15 6 8 1017.8 1016.7 0.0
23/10:00am 22.6 21.2 11.0 48 6.5 SW 9 13 5 7 1017.8 1016.7 0.0
23/09:30am 22.1 21.6 12.1 53 5.7 ESE 6 13 3 7 1017.8 1016.7 0.0
23/09:00am 21.0 20.2 11.6 55 5.3 E 7 9 4 5 1017.7 1016.6 2.0
23/08:30am 20.3 19.1 12.8 62 4.3 SE 11 15 6 8 1017.7 1016.6 2.0
23/08:00am 18.8 17.7 12.1 65 3.8 SE 9 13 5 7 1017.6 1016.5 2.0
23/07:30am 17.7 16.2 11.9 69 3.2 SE 11 17 6 9 1017.2 1016.1 2.0
23/07:00am 16.6 15.0 11.5 72 2.8 SE 11 15 6 8 1017.0 1015.9 2.0
23/06:30am 14.6 13.4 11.6 82 1.6 SE 9 13 5 7 1016.6 1015.5 2.0
23/06:00am 13.7 12.2 10.5 81 1.7 SE 9 11 5 6 1016.2 1015.1 2.0
23/05:30am 14.0 12.1 10.6 80 1.8 SE 11 13 6 7 1016.0 1014.9 2.0
23/05:00am 13.9 12.0 10.5 80 1.8 SE 11 13 6 7 1015.8 1014.7 2.0
23/04:30am 13.6 11.7 10.6 82 1.6 SE 11 15 6 8 1015.6 1014.4 2.0
23/04:00am 14.2 13.1 10.6 79 1.9 ESE 7 11 4 6 1015.7 1014.6 2.0
23/03:30am 14.1 11.9 10.7 80 1.8 SE 13 13 7 7 1015.5 1014.3 2.0
23/03:00am 14.1 12.6 10.5 79 1.9 SSE 9 11 5 6 1015.6 1014.4 2.0
23/02:30am 14.7 12.9 10.9 78 2.0 SE 11 13 6 7 1015.4 1014.2 2.0
23/02:00am 15.3 13.2 11.1 76 2.3 SSE 13 15 7 8 1015.7 1014.6 2.0
23/01:30am 14.8 12.7 11.0 78 2.0 SE 13 15 7 8 1015.9 1014.8 2.0
23/01:00am 15.3 13.7 11.5 78 2.1 SE 11 15 6 8 1016.2 1015.1 2.0
23/12:30am 16.3 14.4 11.9 75 2.4 SE 13 17 7 9 1016.3 1015.2 2.0
23/12:00am 15.5 13.2 11.9 79 2.0 SE 15 19 8 10 1016.4 1015.3 2.0
 
Date/Time
EDT
Temp
°C
App
Temp
°C
Dew
Point
°C
Rel
Hum
%
Delta-T
°C
Wind Press
QNH
hPa
Press
MSL
hPa
Rain since
9am
mm
Dir  Spd
km/h
Gust
km/h
Spd
kts
Gust
kts
22/11:30pm 16.0 14.5 12.0 77 2.2 SE 11 15 6 8 1016.3 1015.2 2.0
22/11:00pm 16.3 14.2 12.3 77 2.2 SE 15 17 8 9 1016.2 1015.1 2.0
22/10:30pm 16.3 14.2 12.5 78 2.1 SE 15 17 8 9 1016.1 1015.0 2.0
22/10:00pm 16.4 14.7 12.6 78 2.1 SE 13 15 7 8 1016.2 1015.1 2.0
22/09:30pm 17.0 15.1 12.9 77 2.3 SE 15 19 8 10 1016.1 1015.0 2.0
22/09:00pm 17.6 14.4 13.1 75 2.6 SE 22 26 12 14 1015.9 1014.8 2.0
22/08:30pm 18.0 15.2 12.5 70 3.1 SSE 19 28 10 15 1015.6 1014.4 2.0
22/08:00pm 18.6 14.2 13.0 70 3.2 SSE 28 35 15 19 1015.3 1014.1 2.0
22/07:57pm 18.6 14.2 12.8 69 3.3 SSE 28 35 15 19 1015.2 1014.0 2.0
22/07:30pm 20.4 19.9 12.6 61 4.5 SSW 7 9 4 5 1014.9 1013.7 2.0
22/07:00pm 20.8 19.8 12.2 58 4.9 WNW 9 13 5 7 1014.7 1013.5 2.0
22/06:30pm 20.0 18.3 13.5 66 3.8 E 15 22 8 12 1014.4 1013.2 2.0
22/06:00pm 20.4 16.0 10.5 53 5.4 ESE 24 33 13 18 1013.7 1012.6 2.0
22/05:48pm 19.9 14.8 11.9 60 4.5 ESE 30 48 16 26 1013.8 1012.7 1.8
22/05:30pm 19.1 13.6 12.6 66 3.7 SE 33 48 18 26 1014.0 1012.9 1.2
22/05:11pm 23.5 17.6 7.6 36 8.4 SSE 28 44 15 24 1013.6 1012.5 0.0
22/05:00pm 26.4 21.8 6.4 28 10.6 SSE 20 26 11 14 1013.5 1012.4 0.0
22/04:30pm 28.6 25.6 6.1 24 12.0 SSW 11 17 6 9 1013.5 1012.4 0.0
22/04:00pm 26.5 23.9 6.0 27 10.8 SSE 9 15 5 8 1013.9 1012.8 0.0
22/03:30pm 27.6 24.9 5.8 25 11.5 NW 9 13 5 7 1014.1 1013.0 0.0
22/03:00pm 27.6 24.8 5.2 24 11.7 ESE 9 15 5 8 1014.7 1013.5 0.0
22/02:30pm 27.3 24.9 7.2 28 10.8 N 9 15 5 8 1015.2 1014.0 0.0
22/02:00pm 27.2 24.7 6.6 27 11.0 N 9 19 5 10 1015.8 1014.7 0.0
22/01:30pm 26.9 23.0 5.2 25 11.3 E 15 20 8 11 1016.4 1015.3 0.0
22/01:00pm 26.5 24.0 6.5 28 10.6 ENE 9 20 5 11 1016.8 1015.7 0.0
22/12:30pm 26.1 23.4 5.7 27 10.6 E 9 15 5 8 1017.3 1016.2 0.0
22/12:00pm 24.4 21.3 5.7 30 9.6 ENE 11 24 6 13 1017.6 1016.5 0.0
22/11:30am 24.3 21.5 7.0 33 9.1 NE 11 17 6 9 1018.1 1017.0 0.0
22/11:00am 24.4 22.5 7.5 34 9.0 NNE 7 28 4 15 1018.6 1017.4 0.0
22/10:30am 23.2 20.0 6.9 35 8.5 E 13 19 7 10 1018.9 1017.7 0.0
22/10:00am 22.4 19.7 7.4 38 7.9 E 11 20 6 11 1019.1 1018.0 0.0
22/09:30am 21.2 18.5 7.4 41 7.2 E 11 20 6 11 1019.2 1018.1 0.0
22/09:00am 20.5 18.1 8.8 47 6.2 E 11 15 6 8 1019.4 1018.3 0.0
22/08:30am 19.8 17.2 9.4 51 5.6 SE 13 19 7 10 1019.7 1018.6 0.0
22/08:00am 18.4 16.6 10.8 61 4.1 ESE 11 15 6 8 1019.6 1018.5 0.0
22/07:30am 16.3 13.9 9.9 66 3.4 SE 13 15 7 8 1019.5 1018.4 0.0
22/07:00am 15.2 13.3 10.4 73 2.6 ESE 11 17 6 9 1019.2 1018.1 0.0
22/06:30am 13.6 11.6 10.2 80 1.8 SE 11 13 6 7 1019.0 1017.8 0.0
22/06:00am 12.7 10.0 10.2 85 1.3 SE 15 17 8 9 1018.6 1017.4 0.0
22/05:30am 12.6 9.4 10.1 85 1.3 SE 17 19 9 10 1018.6 1017.4 0.0
22/05:00am 12.2 9.6 9.4 83 1.4 SE 13 17 7 9 1018.5 1017.3 0.0
22/04:30am 13.0 9.8 10.0 82 1.6 SSE 17 20 9 11 1018.1 1017.0 0.0
22/04:00am 12.8 10.6 9.4 80 1.7 SE 11 13 6 7 1018.0 1016.9 0.0
22/03:30am 12.9 10.0 9.5 80 1.8 SE 15 17 8 9 1018.0 1016.9 0.0
22/03:00am 13.9 11.0 9.7 76 2.2 SE 15 17 8 9 1018.3 1017.1 0.0
22/02:30am 14.8 11.6 10.0 73 2.5 SE 17 20 9 11 1018.3 1017.1 0.0
22/02:00am 13.6 10.9 9.1 74 2.3 SE 13 15 7 8 1018.5 1017.3 0.0
22/01:30am 14.6 11.7 9.6 72 2.6 SE 15 17 8 9 1018.6 1017.4 0.0
22/01:00am 15.4 12.8 9.5 68 3.1 SE 13 15 7 8 1018.9 1017.7 0.0
22/12:30am 16.2 14.8 9.4 64 3.6 ESE 7 11 4 6 1019.1 1018.0 0.0
22/12:00am 17.4 14.8 9.3 59 4.3 ESE 13 19 7 10 1019.3 1018.2 0.0
 
Date/Time
EDT
Temp
°C
App
Temp
°C
Dew
Point
°C
Rel
Hum
%
Delta-T
°C
Wind Press
QNH
hPa
Press
MSL
hPa
Rain since
9am
mm
Dir  Spd
km/h
Gust
km/h
Spd
kts
Gust
kts
21/11:30pm 17.4 14.8 9.3 59 4.3 ESE 13 19 7 10 1019.2 1018.1 0.0
21/11:00pm 17.8 14.3 8.6 55 4.8 SE 17 20 9 11 1019.3 1018.2 0.0
21/10:30pm 19.0 15.5 8.9 52 5.3 SE 17 20 9 11 1019.1 1018.0 0.0
21/10:00pm 19.9 16.5 9.2 50 5.7 E 17 26 9 14 1018.8 1017.6 0.0
21/09:30pm 20.5 17.3 8.5 46 6.4 ESE 15 20 8 11 1018.5 1017.3 0.0
21/09:00pm 21.1 17.7 7.7 42 7.0 ESE 15 20 8 11 1017.9 1016.8 0.0
21/08:30pm 21.8 18.3 7.2 39 7.6 ESE 15 20 8 11 1017.5 1016.4 0.0
21/08:00pm 22.4 18.5 7.0 37 8.0 ESE 17 22 9 12 1017.1 1016.0 0.0
21/07:30pm 23.5 19.4 6.3 33 8.9 ESE 17 22 9 12 1016.9 1015.8 0.0
21/07:00pm 24.8 20.6 5.6 29 9.9 ESE 17 22 9 12 1016.6 1015.5 0.0
21/06:30pm 26.0 21.3 6.1 28 10.4 ESE 20 30 11 16 1016.4 1015.3 0.0
21/06:00pm 25.6 21.3 6.8 30 9.9 ESE 19 30 10 16 1016.4 1015.3 0.0
21/05:30pm 27.7 23.3 6.5 26 11.3 NE 19 24 10 13 1016.5 1015.4 0.0
21/05:00pm 28.6 23.2 2.7 19 13.0 SSE 20 30 11 16 1016.6 1015.5 0.0
21/04:30pm 25.6 23.5 8.1 33 9.5 SE 9 13 5 7 1016.8 1015.7 0.0
21/04:00pm 27.7 24.0 6.5 26 11.3 SE 15 24 8 13 1017.0 1015.9 0.0
21/03:30pm 28.1 24.5 8.4 29 10.9 ESE 17 28 9 15 1017.3 1016.2 0.0
21/03:00pm 28.0 24.6 7.8 28 11.0 SE 15 20 8 11 1017.6 1016.5 0.0
21/02:30pm 26.5 22.8 8.0 31 10.1 SE 17 20 9 11 1018.4 1017.2 0.0
21/02:00pm 26.7 23.6 7.2 29 10.4 ESE 13 30 7 16 1018.8 1017.6 0.0
21/01:30pm 26.6 23.8 8.6 32 9.9 E 13 22 7 12 1019.3 1018.2 0.0
21/01:00pm 25.9 22.3 9.7 36 9.0 SE 19 28 10 15 1019.7 1018.6 0.0
21/12:30pm 26.0 23.4 9.4 35 9.2 ESE 13 24 7 13 1020.2 1019.1 0.0
21/12:00pm 25.0 22.7 10.5 40 8.1 SE 13 22 7 12 1020.8 1019.7 0.0
21/11:30am 24.3 21.5 8.7 37 8.5 ESE 13 20 7 11 1021.3 1020.2 0.0
21/11:00am 24.3 20.7 9.8 40 8.0 SSE 19 28 10 15 1021.5 1020.4 0.0
21/10:30am 23.1 19.8 9.5 42 7.4 ESE 17 30 9 16 1021.7 1020.6 0.0
21/10:00am 22.8 19.3 10.3 45 6.9 ESE 19 30 10 16 1021.9 1020.8 0.0
21/09:30am 22.2 18.5 10.0 46 6.7 ESE 20 32 11 17 1022.0 1020.9 0.0
21/09:00am 21.8 17.9 9.3 45 6.7 SE 20 28 11 15 1022.3 1021.1 0.0
21/08:30am 19.9 15.9 10.6 55 5.1 SSE 22 32 12 17 1022.5 1021.4 0.0
21/08:00am 19.2 15.8 11.3 60 4.4 SSE 20 26 11 14 1022.4 1021.2 0.0
21/07:30am 17.7 14.9 11.3 66 3.5 SE 17 22 9 12 1022.1 1021.0 0.0
21/07:00am 16.5 13.0 11.0 70 3.0 SE 20 28 11 15 1021.9 1020.8 0.0
21/06:30am 15.4 12.1 10.8 74 2.5 SSE 19 24 10 13 1021.7 1020.6 0.0
21/06:00am 15.8 12.6 11.2 74 2.5 SE 19 26 10 14 1021.4 1020.3 0.0
21/05:30am 16.1 13.0 11.5 74 2.5 SSE 19 26 10 14 1021.2 1020.1 0.0
21/05:00am 15.9 12.6 11.7 76 2.3 SSE 20 26 11 14 1020.8 1019.7 0.0
21/04:30am 14.5 12.1 11.3 81 1.7 SE 15 19 8 10 1020.7 1019.6 0.0
21/04:00am 15.1 12.7 11.3 78 2.1 SE 15 20 8 11 1020.6 1019.5 0.0
21/03:30am 15.3 12.9 11.5 78 2.1 SE 15 19 8 10 1020.7 1019.6 0.0
21/03:00am 14.8 12.9 10.6 76 2.2 SSE 11 15 6 8 1020.9 1019.8 0.0
21/02:30am 16.1 12.8 10.8 71 2.9 SSE 19 26 10 14 1021.0 1019.9 0.0
21/02:00am 15.3 13.0 10.5 73 2.6 SSE 13 20 7 11 1021.1 1020.0 0.0
21/01:30am 16.3 13.3 10.6 69 3.1 SE 17 22 9 12 1021.0 1019.9 0.0
21/01:00am 17.4 14.6 11.2 67 3.4 SE 17 24 9 13 1021.3 1020.2 0.0
21/12:30am 16.7 14.0 10.5 67 3.3 SE 15 19 8 10 1021.5 1020.4 0.0
21/12:00am 17.8 14.5 10.9 64 3.8 SE 19 24 10 13 1021.3 1020.2 0.0
 
Date/Time
EDT
Temp
°C
App
Temp
°C
Dew
Point
°C
Rel
Hum
%
Delta-T
°C
Wind Press
QNH
hPa
Press
MSL
hPa
Rain since
9am
mm
Dir  Spd
km/h
Gust
km/h
Spd
kts
Gust
kts
20/11:30pm 17.9 14.9 10.5 62 4.0 SSE 17 20 9 11 1021.1 1020.0 0.0
20/11:00pm 19.1 15.9 10.1 56 4.9 ESE 17 24 9 13 1020.8 1019.7 0.0
20/10:30pm 19.4 15.9 10.1 55 5.0 SE 19 26 10 14 1020.6 1019.5 0.0

Other Formats:

Comma delimited format used in spreadsheet applications
http://www.bom.gov.au/fwo/IDN60801/IDN60801.95740.axf

JavaScript Object Notation format (JSON) in row-major order
http://www.bom.gov.au/fwo/IDN60801/IDN60801.95740.json